Loading...
Entebbe International Airport

HUEN

Code AITA: EBB

Entebbe, Uganda

24.0°

Rosée: 19.0

Vitesse du vent

2 kt

Direction: 140° /

Altimètre

30 Hg

QNH : 1016

HUEN 191530Z 14002KT 9999 FEW022 FEW024CB 24/19 Q1016


Entebbe International Airport

Élévation

1147.0 mètres

Ville

Entebbe

Localisation

Central Region

Pays

Uganda

Nouvelle recherche